createdAt,value
2017-09-30T00:00:53.112Z,86.35
2017-09-30T00:03:20.591Z,86.25
2017-09-30T00:05:48.062Z,86.44
2017-09-30T00:08:15.543Z,86.73
2017-09-30T00:10:43.010Z,86.81
2017-09-30T00:13:10.517Z,86.49
2017-09-30T00:15:37.984Z,86.65
2017-09-30T00:18:05.533Z,86.21
2017-09-30T00:20:32.997Z,85.93
2017-09-30T00:23:00.565Z,86.11
2017-09-30T00:25:28.111Z,86.67
2017-09-30T00:27:55.593Z,86.99
2017-09-30T00:30:23.141Z,86.82
2017-09-30T00:32:50.691Z,86.62
2017-09-30T00:35:18.162Z,86.87
2017-09-30T00:37:45.710Z,87.62
2017-09-30T00:40:13.192Z,87.14
2017-09-30T00:42:40.648Z,86.77
2017-09-30T00:45:08.173Z,86.48
2017-09-30T00:47:35.636Z,86.67
2017-09-30T00:50:03.192Z,86.48
2017-09-30T00:52:30.655Z,86.59
2017-09-30T00:54:58.149Z,86.73
2017-09-30T00:57:25.666Z,88.56
2017-09-30T00:59:53.229Z,87.54
2017-09-30T01:02:20.689Z,87.75
2017-09-30T01:04:48.159Z,87.68
2017-09-30T01:07:15.635Z,87.31
2017-09-30T01:09:43.113Z,86.92
2017-09-30T01:12:10.594Z,87.09
2017-09-30T01:14:38.107Z,87.53
2017-09-30T01:17:05.606Z,87.33
2017-09-30T01:19:33.075Z,87.84
2017-09-30T01:22:00.569Z,87.75
2017-09-30T01:24:28.043Z,87.17
2017-09-30T01:26:55.541Z,86.68
2017-09-30T01:29:23.012Z,86.48
2017-09-30T01:31:50.507Z,86.49
2017-09-30T01:34:17.963Z,87.00
2017-09-30T01:36:45.449Z,87.56
2017-09-30T01:39:12.927Z,87.14
2017-09-30T01:41:40.425Z,87.08
2017-09-30T01:44:07.898Z,87.71
2017-09-30T01:46:35.368Z,87.88
2017-09-30T01:49:02.856Z,87.84
2017-09-30T01:51:30.414Z,87.67
2017-09-30T01:53:57.910Z,87.36
2017-09-30T01:56:25.393Z,87.99
2017-09-30T01:58:52.888Z,88.25
2017-09-30T02:01:20.352Z,87.82
2017-09-30T02:03:47.868Z,87.74
2017-09-30T02:06:15.328Z,89.07
2017-09-30T02:08:42.921Z,89.28
2017-09-30T02:11:10.499Z,89.27
2017-09-30T02:13:37.977Z,88.66
2017-09-30T02:16:05.457Z,88.32
2017-09-30T02:18:32.963Z,87.97
2017-09-30T02:21:00.501Z,88.20
2017-09-30T02:23:28.012Z,89.63
2017-09-30T02:25:55.479Z,90.92
2017-09-30T02:28:22.968Z,90.33
2017-09-30T02:30:50.549Z,89.26
2017-09-30T02:33:18.020Z,89.27
2017-09-30T02:35:45.866Z,88.65
2017-09-30T02:38:13.429Z,88.07
2017-09-30T02:40:40.989Z,88.82
2017-09-30T02:43:08.535Z,88.48
2017-09-30T02:45:36.105Z,89.16
2017-09-30T02:48:03.560Z,88.90
2017-09-30T02:50:31.113Z,88.85
2017-09-30T02:52:58.692Z,88.90
2017-09-30T02:55:26.180Z,90.10
2017-09-30T02:57:53.649Z,90.30
2017-09-30T03:00:21.139Z,90.66
2017-09-30T03:02:48.595Z,90.91
2017-09-30T03:05:16.104Z,90.43
2017-09-30T03:07:43.575Z,91.47
2017-09-30T03:10:11.080Z,90.88
2017-09-30T03:12:38.551Z,90.81
2017-09-30T03:15:06.093Z,91.20
2017-09-30T03:17:33.646Z,91.65
2017-09-30T03:20:01.199Z,91.36
2017-09-30T03:22:28.773Z,91.07
2017-09-30T03:24:56.246Z,90.54
2017-09-30T03:27:23.740Z,91.16
2017-09-30T03:29:51.210Z,91.10
2017-09-30T03:32:18.701Z,88.79
2017-09-30T03:34:46.162Z,86.12
2017-09-30T03:37:13.635Z,86.90
2017-09-30T03:39:41.088Z,88.26
2017-09-30T03:42:08.629Z,85.42
2017-09-30T03:44:36.093Z,86.80
2017-09-30T03:47:03.580Z,87.29
2017-09-30T03:49:31.039Z,87.40
2017-09-30T03:51:58.512Z,88.45
2017-09-30T03:54:25.976Z,88.80
2017-09-30T03:56:53.460Z,90.05
2017-09-30T03:59:20.929Z,89.21
2017-09-30T04:01:48.401Z,88.82
2017-09-30T04:04:15.889Z,89.29
2017-09-30T04:06:43.384Z,89.51
2017-09-30T04:09:10.894Z,89.74
2017-09-30T04:11:38.361Z,89.48
2017-09-30T04:14:05.841Z,90.10
2017-09-30T04:16:33.331Z,89.20
2017-09-30T04:19:00.815Z,89.26
2017-09-30T04:21:28.346Z,88.77
2017-09-30T04:23:55.901Z,88.82
2017-09-30T04:26:23.457Z,89.11
2017-09-30T04:28:51.133Z,89.12
2017-09-30T04:31:18.612Z,89.11
2017-09-30T04:33:46.238Z,88.61
2017-09-30T04:36:13.700Z,88.56
2017-09-30T04:38:41.171Z,89.33
2017-09-30T04:41:08.634Z,89.51
2017-09-30T04:43:36.145Z,89.39
2017-09-30T04:46:03.612Z,89.63
2017-09-30T04:48:31.181Z,91.00
2017-09-30T04:50:58.738Z,92.11
2017-09-30T04:53:26.209Z,93.12
2017-09-30T04:55:53.754Z,92.59
2017-09-30T04:58:21.207Z,92.91
2017-09-30T05:00:48.692Z,93.24
2017-09-30T05:03:16.214Z,93.72
2017-09-30T05:05:43.893Z,92.87
2017-09-30T05:08:11.441Z,91.75
2017-09-30T05:10:38.932Z,90.95
2017-09-30T05:13:06.449Z,89.46
2017-09-30T05:15:33.909Z,90.68
2017-09-30T05:18:01.402Z,90.03
2017-09-30T05:20:28.869Z,90.12
2017-09-30T05:22:56.347Z,90.11
2017-09-30T05:25:23.820Z,89.89
2017-09-30T05:27:51.318Z,89.94
2017-09-30T05:30:18.777Z,90.44
2017-09-30T05:32:46.302Z,90.33
2017-09-30T05:35:13.779Z,90.31
2017-09-30T05:37:41.331Z,89.76
2017-09-30T05:40:08.795Z,89.32
2017-09-30T05:42:36.288Z,89.04
2017-09-30T05:45:03.795Z,88.03
2017-09-30T05:47:31.389Z,88.43
2017-09-30T05:49:58.852Z,89.33
2017-09-30T05:52:26.419Z,89.21
2017-09-30T05:54:53.931Z,88.96
2017-09-30T05:57:21.404Z,89.28
2017-09-30T05:59:48.899Z,89.40
2017-09-30T06:02:16.367Z,89.71
2017-09-30T06:04:43.965Z,89.69
2017-09-30T06:07:11.528Z,89.63
2017-09-30T06:09:39.023Z,90.12
2017-09-30T06:12:06.506Z,90.39
2017-09-30T06:14:33.991Z,89.78
2017-09-30T06:17:01.448Z,89.48
2017-09-30T06:19:29.213Z,89.37
2017-09-30T06:21:56.689Z,89.42
2017-09-30T06:24:24.223Z,88.76
2017-09-30T06:26:51.716Z,89.52
2017-09-30T06:29:19.193Z,88.64
2017-09-30T06:31:46.695Z,87.94
2017-09-30T06:34:14.163Z,88.85
2017-09-30T06:36:41.659Z,88.93
2017-09-30T06:39:09.172Z,89.19
2017-09-30T06:41:36.667Z,88.99
2017-09-30T06:44:04.129Z,88.62
2017-09-30T06:46:31.616Z,89.14
2017-09-30T06:48:59.101Z,89.16
2017-09-30T06:51:26.605Z,89.15
2017-09-30T06:53:54.068Z,89.08
2017-09-30T06:56:21.547Z,88.88
2017-09-30T06:58:49.037Z,88.72
2017-09-30T07:01:16.499Z,88.87
2017-09-30T07:03:43.980Z,88.43
2017-09-30T07:06:11.445Z,88.46
2017-09-30T07:08:38.961Z,88.34
2017-09-30T07:11:06.415Z,89.14
2017-09-30T07:13:33.965Z,88.58
2017-09-30T07:16:01.424Z,88.06
2017-09-30T07:18:28.909Z,88.14
2017-09-30T07:20:56.408Z,87.41
2017-09-30T07:23:23.902Z,87.24
2017-09-30T07:25:51.379Z,88.00
2017-09-30T07:28:18.908Z,86.73
2017-09-30T07:30:46.371Z,86.88
2017-09-30T07:33:13.855Z,87.42
2017-09-30T07:35:41.341Z,86.48
2017-09-30T07:38:08.807Z,86.85
2017-09-30T07:40:36.339Z,86.22
2017-09-30T07:43:03.860Z,86.74
2017-09-30T07:45:31.343Z,87.04
2017-09-30T07:47:58.799Z,87.19
2017-09-30T07:50:26.279Z,86.49
2017-09-30T07:52:53.731Z,86.05
2017-09-30T07:55:21.252Z,85.97
2017-09-30T07:57:48.728Z,85.64
2017-09-30T08:00:16.262Z,85.65
2017-09-30T08:02:43.825Z,85.39
2017-09-30T08:05:11.381Z,84.98
2017-09-30T08:07:38.927Z,84.22
2017-09-30T08:10:07.108Z,83.67
2017-09-30T08:12:34.597Z,83.11
2017-09-30T08:15:02.048Z,82.90
2017-09-30T08:17:29.562Z,81.98
2017-09-30T08:19:57.037Z,82.24
2017-09-30T08:22:24.529Z,82.38
2017-09-30T08:24:51.993Z,82.51
2017-09-30T08:27:19.489Z,82.53
2017-09-30T08:29:47.023Z,82.67
2017-09-30T08:32:14.499Z,81.67
2017-09-30T08:34:41.955Z,79.21
2017-09-30T08:37:09.490Z,81.12
2017-09-30T08:39:36.962Z,79.96
2017-09-30T08:42:04.458Z,78.91
2017-09-30T08:44:31.953Z,79.73
2017-09-30T08:46:59.412Z,79.09
2017-09-30T08:49:26.898Z,78.76
2017-09-30T08:51:54.369Z,78.05
2017-09-30T08:54:21.851Z,76.81
2017-09-30T08:56:49.387Z,77.35
2017-09-30T08:59:16.873Z,77.04
2017-09-30T09:01:44.341Z,77.03
2017-09-30T09:04:11.818Z,76.75
2017-09-30T09:06:39.319Z,75.11
2017-09-30T09:09:06.859Z,75.60
2017-09-30T09:11:34.316Z,76.10
2017-09-30T09:14:01.804Z,76.76
2017-09-30T09:16:29.269Z,76.68
2017-09-30T09:18:56.770Z,76.96
2017-09-30T09:21:24.251Z,77.11
2017-09-30T09:23:51.820Z,76.74
2017-09-30T09:26:19.299Z,77.39
2017-09-30T09:28:46.834Z,77.64
2017-09-30T09:31:14.321Z,77.97
2017-09-30T09:33:41.780Z,76.46
2017-09-30T09:36:09.274Z,75.34
2017-09-30T09:38:36.731Z,75.22
2017-09-30T09:41:04.208Z,75.42
2017-09-30T09:43:31.690Z,75.49
2017-09-30T09:45:59.233Z,76.54
2017-09-30T09:48:26.792Z,74.80
2017-09-30T09:50:54.256Z,74.16
2017-09-30T09:53:21.911Z,74.77
2017-09-30T09:55:49.382Z,74.38
2017-09-30T09:58:16.859Z,74.23
2017-09-30T10:00:44.320Z,74.18
2017-09-30T10:03:11.804Z,75.60
2017-09-30T10:05:39.264Z,75.68
2017-09-30T10:08:06.866Z,75.03
2017-09-30T10:10:34.324Z,75.67
2017-09-30T10:13:01.983Z,75.11
2017-09-30T10:15:29.452Z,75.44
2017-09-30T10:17:56.915Z,74.05
2017-09-30T10:20:24.397Z,72.69
2017-09-30T10:22:51.894Z,71.47
2017-09-30T10:25:19.372Z,70.65
2017-09-30T10:27:46.929Z,70.99
2017-09-30T10:30:14.421Z,70.13
2017-09-30T10:32:41.895Z,68.95
2017-09-30T10:37:36.127Z,69.29
2017-09-30T10:40:03.612Z,70.45
2017-09-30T10:42:31.075Z,70.21
2017-09-30T10:44:58.573Z,69.70
2017-09-30T10:47:26.061Z,69.45
2017-09-30T10:49:53.552Z,70.86
2017-09-30T10:52:21.007Z,70.69
2017-09-30T10:54:48.459Z,69.68
2017-09-30T10:57:15.948Z,69.12
2017-09-30T10:59:43.403Z,70.70
2017-09-30T11:02:10.894Z,70.84
2017-09-30T11:04:38.352Z,70.85
2017-09-30T11:07:05.840Z,69.42
2017-09-30T11:09:33.295Z,68.32
2017-09-30T11:12:00.840Z,66.92
2017-09-30T11:14:28.302Z,68.37
2017-09-30T11:16:55.771Z,67.38
2017-09-30T11:19:23.235Z,66.99
2017-09-30T11:21:50.747Z,68.02
2017-09-30T11:24:18.200Z,68.97
2017-09-30T11:26:45.768Z,69.38
2017-09-30T11:29:13.222Z,68.63
2017-09-30T11:31:40.711Z,68.58
2017-09-30T11:34:08.177Z,69.61
2017-09-30T11:36:35.638Z,69.52
2017-09-30T11:39:03.124Z,70.08
2017-09-30T11:41:30.585Z,69.71
2017-09-30T11:43:58.174Z,70.18
2017-09-30T11:46:25.737Z,69.63
2017-09-30T11:48:53.284Z,68.62
2017-09-30T11:51:20.753Z,68.96
2017-09-30T11:53:48.246Z,68.48
2017-09-30T11:56:15.716Z,68.84
2017-09-30T11:58:43.221Z,68.50
2017-09-30T12:01:10.699Z,69.07
2017-09-30T12:03:38.183Z,67.71
2017-09-30T12:06:05.708Z,66.75
2017-09-30T12:08:33.257Z,67.58
2017-09-30T12:11:00.710Z,67.80
2017-09-30T12:13:28.172Z,68.56
2017-09-30T12:15:55.665Z,68.17
2017-09-30T12:18:23.137Z,67.95
2017-09-30T12:20:50.615Z,67.97
2017-09-30T12:23:18.080Z,67.46
2017-09-30T12:25:45.572Z,67.86
2017-09-30T12:28:13.047Z,67.95
2017-09-30T12:30:40.523Z,68.32
2017-09-30T12:33:07.980Z,69.40
2017-09-30T12:35:35.581Z,69.00
2017-09-30T12:38:03.046Z,69.58
2017-09-30T12:40:30.595Z,69.18
2017-09-30T12:42:58.072Z,68.46
2017-09-30T12:45:25.569Z,68.91
2017-09-30T12:47:53.023Z,68.29
2017-09-30T12:50:20.515Z,70.28
2017-09-30T12:52:48.032Z,70.32
2017-09-30T12:55:15.547Z,72.35
2017-09-30T12:57:43.083Z,71.81
2017-09-30T13:00:10.548Z,71.37
2017-09-30T13:02:38.099Z,70.70
2017-09-30T13:05:05.539Z,70.29
2017-09-30T13:07:33.029Z,70.15
2017-09-30T13:10:00.587Z,70.55
2017-09-30T13:12:28.073Z,70.49
2017-09-30T13:14:55.528Z,70.31
2017-09-30T13:17:23.047Z,70.09
2017-09-30T13:19:50.613Z,69.04
2017-09-30T13:22:18.101Z,68.36
2017-09-30T13:24:45.576Z,67.50
2017-09-30T13:27:13.077Z,65.19
2017-09-30T13:29:40.524Z,65.21
2017-09-30T13:32:07.985Z,64.03
2017-09-30T13:34:35.463Z,63.76
2017-09-30T13:37:02.931Z,64.48
2017-09-30T13:39:30.433Z,66.71
2017-09-30T13:41:57.880Z,66.29
2017-09-30T13:44:25.349Z,68.64
2017-09-30T13:46:52.830Z,69.35
2017-09-30T13:49:20.309Z,71.57
2017-09-30T13:51:47.766Z,73.75
2017-09-30T13:54:15.239Z,71.83
2017-09-30T13:56:42.700Z,73.00
2017-09-30T13:59:10.211Z,72.61
2017-09-30T14:01:37.810Z,74.62
2017-09-30T14:04:05.332Z,74.15
2017-09-30T14:06:32.789Z,73.99
2017-09-30T14:09:00.254Z,74.36
2017-09-30T14:11:27.733Z,75.18
2017-09-30T14:13:55.275Z,76.59
2017-09-30T14:16:22.748Z,79.74
2017-09-30T14:18:50.203Z,81.18
2017-09-30T14:21:17.750Z,81.73
2017-09-30T14:23:45.214Z,81.21
2017-09-30T14:26:12.713Z,80.92
2017-09-30T14:28:40.165Z,82.48
2017-09-30T14:31:07.668Z,82.39
2017-09-30T14:33:35.239Z,82.75
2017-09-30T14:36:02.731Z,84.14
2017-09-30T14:38:30.203Z,83.34
2017-09-30T14:40:57.676Z,84.56
2017-09-30T14:43:25.138Z,83.45
2017-09-30T14:45:52.618Z,84.19
2017-09-30T14:48:20.077Z,85.02
2017-09-30T14:50:47.641Z,85.09
2017-09-30T14:53:15.144Z,85.62
2017-09-30T14:55:42.642Z,85.68
2017-09-30T14:58:10.120Z,85.36
2017-09-30T15:00:37.568Z,85.71
2017-09-30T15:03:05.044Z,85.84
2017-09-30T15:05:32.501Z,86.01
2017-09-30T15:07:59.984Z,86.31
2017-09-30T15:10:27.435Z,86.05
2017-09-30T15:12:54.923Z,85.96
2017-09-30T15:15:22.403Z,85.73
2017-09-30T15:17:49.881Z,84.90
2017-09-30T15:20:17.336Z,85.24
2017-09-30T15:22:44.827Z,84.66
2017-09-30T15:25:12.288Z,84.64
2017-09-30T15:27:39.784Z,85.77
2017-09-30T15:30:07.237Z,85.46
2017-09-30T15:32:34.688Z,85.63
2017-09-30T15:35:02.289Z,84.18
2017-09-30T15:37:29.763Z,86.33
2017-09-30T15:39:57.257Z,86.13
2017-09-30T15:42:24.835Z,86.43
2017-09-30T15:44:52.364Z,86.06
2017-09-30T15:47:19.848Z,86.56
2017-09-30T15:49:47.405Z,85.96
2017-09-30T15:52:14.898Z,85.67
2017-09-30T15:54:42.426Z,86.33
2017-09-30T15:57:09.980Z,86.19
2017-09-30T15:59:37.480Z,85.73
2017-09-30T16:02:04.934Z,86.57
2017-09-30T16:04:32.454Z,85.94
2017-09-30T16:06:59.907Z,86.45
2017-09-30T16:09:27.497Z,83.66
2017-09-30T16:11:54.963Z,83.13
2017-09-30T16:14:22.422Z,84.49
2017-09-30T16:16:49.909Z,84.40
2017-09-30T16:19:17.383Z,82.50
2017-09-30T16:21:44.953Z,82.98
2017-09-30T16:24:12.413Z,82.97
2017-09-30T16:26:39.888Z,84.71
2017-09-30T16:29:07.340Z,86.21
2017-09-30T16:31:34.808Z,87.63
2017-09-30T16:34:02.259Z,87.12
2017-09-30T16:36:29.807Z,86.75
2017-09-30T16:38:57.265Z,87.14
2017-09-30T16:41:24.787Z,88.58
2017-09-30T16:43:52.369Z,87.83
2017-09-30T16:46:19.833Z,87.71
2017-09-30T16:48:47.303Z,87.72
2017-09-30T16:51:14.832Z,87.55
2017-09-30T16:53:42.312Z,87.81
2017-09-30T16:56:09.781Z,87.69
2017-09-30T16:58:37.276Z,86.94
2017-09-30T17:01:04.742Z,87.25
2017-09-30T17:03:32.214Z,87.71
2017-09-30T17:05:59.813Z,87.59
2017-09-30T17:08:27.334Z,88.02
2017-09-30T17:10:54.787Z,87.14
2017-09-30T17:13:22.347Z,87.35
2017-09-30T17:15:49.795Z,87.68
2017-09-30T17:18:17.264Z,87.56
2017-09-30T17:20:44.820Z,87.81
2017-09-30T17:23:12.385Z,87.44
2017-09-30T17:25:39.869Z,87.12
2017-09-30T17:28:07.397Z,85.96
2017-09-30T17:30:34.880Z,86.27
2017-09-30T17:33:02.413Z,86.71
2017-09-30T17:35:29.889Z,87.28
2017-09-30T17:37:57.409Z,86.55
2017-09-30T17:40:24.888Z,87.28
2017-09-30T17:42:52.352Z,86.45
2017-09-30T17:45:19.852Z,84.51
2017-09-30T17:47:47.316Z,85.05
2017-09-30T17:50:14.807Z,86.90
2017-09-30T17:52:42.285Z,85.50
2017-09-30T17:55:09.733Z,83.73
2017-09-30T17:57:37.213Z,82.27
2017-09-30T18:00:04.679Z,82.77
2017-09-30T18:02:32.157Z,84.46
2017-09-30T18:04:59.653Z,84.70
2017-09-30T18:07:27.140Z,83.12
2017-09-30T18:09:54.663Z,86.06
2017-09-30T18:12:22.130Z,86.01
2017-09-30T18:14:49.688Z,85.07
2017-09-30T18:17:17.160Z,86.25
2017-09-30T18:19:44.701Z,83.52
2017-09-30T18:22:12.262Z,83.69
2017-09-30T18:24:39.745Z,81.67
2017-09-30T18:27:07.220Z,83.70
2017-09-30T18:29:34.697Z,82.90
2017-09-30T18:32:03.209Z,83.92
2017-09-30T18:34:30.755Z,84.24
2017-09-30T18:36:58.205Z,85.33
2017-09-30T18:39:25.784Z,84.75
2017-09-30T18:41:53.240Z,85.96
2017-09-30T18:44:20.801Z,82.53
2017-09-30T18:46:48.252Z,83.91
2017-09-30T18:49:15.717Z,85.50
2017-09-30T18:51:43.190Z,84.63
2017-09-30T18:54:10.635Z,85.56
2017-09-30T18:56:38.111Z,84.37
2017-09-30T18:59:05.628Z,85.63
2017-09-30T19:01:33.112Z,82.72
2017-09-30T19:04:00.574Z,81.16
2017-09-30T19:06:28.108Z,82.73
2017-09-30T19:08:55.667Z,81.18
2017-09-30T19:11:23.133Z,82.48
2017-09-30T19:13:50.681Z,83.83
2017-09-30T19:16:18.159Z,83.15
2017-09-30T19:18:45.698Z,83.20
2017-09-30T19:21:13.164Z,83.59
2017-09-30T19:23:40.641Z,83.38
2017-09-30T19:26:08.174Z,84.43
2017-09-30T19:28:35.653Z,83.76
2017-09-30T19:31:03.107Z,83.64
2017-09-30T19:33:30.654Z,84.85
2017-09-30T19:35:58.109Z,86.09
2017-09-30T19:38:25.579Z,85.60
2017-09-30T19:40:53.046Z,85.51
2017-09-30T19:43:20.590Z,86.05
2017-09-30T19:45:48.048Z,86.16
2017-09-30T19:48:15.590Z,85.37
2017-09-30T19:50:43.055Z,84.65
2017-09-30T19:53:10.537Z,86.00
2017-09-30T19:55:37.988Z,84.52
2017-09-30T19:58:05.443Z,87.09
2017-09-30T20:00:32.926Z,86.06
2017-09-30T20:03:00.382Z,85.18
2017-09-30T20:05:27.868Z,84.48
2017-09-30T20:07:55.337Z,85.97
2017-09-30T20:10:22.899Z,85.79
2017-09-30T20:12:50.478Z,85.21
2017-09-30T20:15:17.958Z,86.57
2017-09-30T20:17:45.415Z,86.79
2017-09-30T20:20:12.965Z,87.15
2017-09-30T20:22:40.497Z,86.85
2017-09-30T20:25:08.059Z,85.38
2017-09-30T20:27:35.610Z,87.38
2017-09-30T20:30:03.057Z,87.35
2017-09-30T20:32:30.625Z,86.76
2017-09-30T20:34:58.104Z,86.21
2017-09-30T20:37:25.593Z,84.39
2017-09-30T20:39:53.100Z,86.21
2017-09-30T20:42:20.654Z,85.83
2017-09-30T20:44:48.103Z,85.14
2017-09-30T20:47:15.577Z,83.46
2017-09-30T20:49:43.125Z,85.91
2017-09-30T20:52:10.590Z,85.74
2017-09-30T20:54:38.134Z,85.45
2017-09-30T20:57:05.613Z,85.28
2017-09-30T20:59:33.063Z,84.55
2017-09-30T21:02:00.613Z,85.25
2017-09-30T21:04:28.059Z,85.67
2017-09-30T21:06:55.651Z,86.39
2017-09-30T21:09:23.113Z,87.36
2017-09-30T21:11:50.648Z,87.73
2017-09-30T21:14:18.108Z,87.14
2017-09-30T21:16:45.652Z,87.03
2017-09-30T21:19:13.099Z,86.07
2017-09-30T21:21:40.553Z,85.55
2017-09-30T21:24:08.028Z,85.51
2017-09-30T21:26:35.488Z,86.44
2017-09-30T21:29:02.974Z,86.51
2017-09-30T21:31:30.427Z,87.67
2017-09-30T21:33:57.915Z,87.92
2017-09-30T21:36:25.406Z,87.97
2017-09-30T21:38:52.904Z,87.98
2017-09-30T21:41:20.441Z,87.73
2017-09-30T21:43:47.926Z,87.97
2017-09-30T21:46:15.386Z,88.74
2017-09-30T21:48:42.892Z,87.84
2017-09-30T21:51:10.465Z,88.04
2017-09-30T21:53:37.926Z,88.34
2017-09-30T21:56:05.467Z,87.88
2017-09-30T21:58:32.935Z,88.38
2017-09-30T22:01:00.394Z,88.57
2017-09-30T22:03:27.866Z,88.95
2017-09-30T22:05:55.381Z,88.71
2017-09-30T22:08:22.851Z,89.01
2017-09-30T22:10:50.319Z,89.18
2017-09-30T22:13:17.807Z,89.13
2017-09-30T22:15:45.285Z,90.39
2017-09-30T22:18:12.743Z,90.23
2017-09-30T22:20:40.235Z,89.90
2017-09-30T22:23:07.704Z,89.75
2017-09-30T22:25:35.188Z,89.36
2017-09-30T22:28:02.686Z,89.40
2017-09-30T22:30:30.174Z,89.36
2017-09-30T22:32:57.729Z,88.37
2017-09-30T22:35:25.209Z,88.43
2017-09-30T22:37:52.697Z,88.96
2017-09-30T22:40:20.177Z,88.39
2017-09-30T22:42:47.633Z,88.83
2017-09-30T22:45:15.084Z,89.35
2017-09-30T22:47:42.577Z,89.23
2017-09-30T22:50:10.109Z,89.00
2017-09-30T22:52:37.582Z,89.23
2017-09-30T22:55:05.028Z,89.53
2017-09-30T22:57:32.595Z,88.94
2017-09-30T23:00:00.054Z,88.71
2017-09-30T23:02:27.544Z,87.78
2017-09-30T23:04:55.066Z,87.68
2017-09-30T23:07:22.530Z,87.65
2017-09-30T23:09:49.995Z,86.82
2017-09-30T23:12:17.540Z,88.15
2017-09-30T23:14:45.098Z,88.36
2017-09-30T23:17:12.578Z,88.07
2017-09-30T23:19:40.112Z,88.50
2017-09-30T23:22:07.568Z,89.53
2017-09-30T23:24:35.041Z,89.08
2017-09-30T23:27:02.584Z,89.30
2017-09-30T23:29:30.155Z,89.11
2017-09-30T23:31:57.656Z,89.56
2017-09-30T23:34:25.120Z,89.61
2017-09-30T23:36:52.597Z,89.98
2017-09-30T23:39:20.077Z,89.83
2017-09-30T23:41:47.555Z,89.48
2017-09-30T23:44:15.052Z,88.99
2017-09-30T23:46:42.539Z,88.67
2017-09-30T23:49:10.012Z,88.71
2017-09-30T23:51:37.469Z,88.29
2017-09-30T23:54:05.024Z,88.66
2017-09-30T23:56:32.515Z,87.75
2017-09-30T23:58:59.980Z,86.02
